createdAt,value
2017-11-04T00:00:18.018Z,32.83
2017-11-04T00:02:47.934Z,36.87
2017-11-04T00:05:17.814Z,34.00
2017-11-04T00:07:47.692Z,33.73
2017-11-04T00:10:17.542Z,36.30
2017-11-04T00:12:47.393Z,31.03
2017-11-04T00:15:17.239Z,36.10
2017-11-04T00:17:47.098Z,35.90
2017-11-04T00:20:16.973Z,32.17
2017-11-04T00:22:46.822Z,35.90
2017-11-04T00:25:16.763Z,31.23
2017-11-04T00:27:46.899Z,35.60
2017-11-04T00:30:16.723Z,37.93
2017-11-04T00:32:46.615Z,35.30
2017-11-04T00:35:16.458Z,32.53
2017-11-04T00:37:46.318Z,36.00
2017-11-04T00:40:16.178Z,33.00
2017-11-04T00:42:46.027Z,36.07
2017-11-04T00:45:15.875Z,32.83
2017-11-04T00:47:45.706Z,36.20
2017-11-04T00:50:15.582Z,36.70
2017-11-04T00:52:45.431Z,37.00
2017-11-04T00:55:15.282Z,32.83
2017-11-04T00:57:45.116Z,37.30
2017-11-04T01:00:14.978Z,36.60
2017-11-04T01:02:44.830Z,32.13
2017-11-04T01:05:15.471Z,35.67
2017-11-04T01:07:45.311Z,33.23
2017-11-04T01:10:15.200Z,39.57
2017-11-04T01:12:45.066Z,34.97
2017-11-04T01:15:14.922Z,37.83
2017-11-04T01:17:44.771Z,51.10
2017-11-04T01:20:14.657Z,37.77
2017-11-04T01:22:44.499Z,37.70
2017-11-04T01:25:14.363Z,36.07
2017-11-04T01:27:44.233Z,34.67
2017-11-04T01:30:14.140Z,36.80
2017-11-04T01:32:44.025Z,38.33
2017-11-04T01:35:13.840Z,35.57
2017-11-04T01:37:43.708Z,35.57
2017-11-04T01:40:13.535Z,43.67
2017-11-04T01:42:43.387Z,39.57
2017-11-04T01:45:13.238Z,38.27
2017-11-04T01:47:43.111Z,37.60
2017-11-04T01:50:12.943Z,39.60
2017-11-04T01:52:42.790Z,36.80
2017-11-04T01:55:12.658Z,35.90
2017-11-04T01:57:42.517Z,37.00
2017-11-04T02:00:12.370Z,33.23
2017-11-04T02:02:42.195Z,36.83
2017-11-04T02:05:12.042Z,40.37
2017-11-04T02:07:41.879Z,35.97
2017-11-04T02:10:11.730Z,34.93
2017-11-04T02:12:41.586Z,35.57
2017-11-04T02:15:11.452Z,34.60
2017-11-04T02:17:41.279Z,35.53
2017-11-04T02:20:11.157Z,38.07
2017-11-04T02:22:40.992Z,34.17
2017-11-04T02:25:10.880Z,35.43
2017-11-04T02:27:40.749Z,40.40
2017-11-04T02:30:10.580Z,34.80
2017-11-04T02:32:40.417Z,45.20
2017-11-04T02:35:10.280Z,33.73
2017-11-04T02:37:40.136Z,38.60
2017-11-04T02:40:09.998Z,42.87
2017-11-04T02:42:39.852Z,35.20
2017-11-04T02:45:09.674Z,36.77
2017-11-04T02:47:39.560Z,37.40
2017-11-04T02:50:09.387Z,36.17
2017-11-04T02:52:39.452Z,34.77
2017-11-04T02:55:09.283Z,42.00
2017-11-04T02:57:39.156Z,37.17
2017-11-04T03:00:08.994Z,37.90
2017-11-04T03:02:38.838Z,37.90
2017-11-04T03:05:08.708Z,36.80
2017-11-04T03:07:38.538Z,36.50
2017-11-04T03:10:08.406Z,34.67
2017-11-04T03:12:38.250Z,32.97
2017-11-04T03:15:08.102Z,39.40
2017-11-04T03:17:37.933Z,38.13
2017-11-04T03:20:07.781Z,37.23
2017-11-04T03:22:37.681Z,37.40
2017-11-04T03:25:07.539Z,35.60
2017-11-04T03:27:37.387Z,37.33
2017-11-04T03:30:07.274Z,35.63
2017-11-04T03:32:37.135Z,35.77
2017-11-04T03:35:06.977Z,42.83
2017-11-04T03:37:36.860Z,41.90
2017-11-04T03:40:07.003Z,46.37
2017-11-04T03:42:36.860Z,41.40
2017-11-04T03:45:06.722Z,42.83
2017-11-04T03:47:36.582Z,41.40
2017-11-04T03:50:06.409Z,44.57
2017-11-04T03:52:36.270Z,37.27
2017-11-04T03:55:06.163Z,41.70
2017-11-04T03:57:36.038Z,38.30
2017-11-04T04:00:05.880Z,36.83
2017-11-04T04:02:35.758Z,43.23
2017-11-04T04:05:05.591Z,37.00
2017-11-04T04:07:35.462Z,37.53
2017-11-04T04:10:05.327Z,41.73
2017-11-04T04:12:35.171Z,36.07
2017-11-04T04:15:05.050Z,36.77
2017-11-04T04:17:34.887Z,39.50
2017-11-04T04:20:04.735Z,38.43
2017-11-04T04:22:34.585Z,36.00
2017-11-04T04:25:04.457Z,43.70
2017-11-04T04:27:34.291Z,30.40
2017-11-04T04:30:04.136Z,35.20
2017-11-04T04:32:33.959Z,36.20
2017-11-04T04:35:03.850Z,36.47
2017-11-04T04:37:33.722Z,34.40
2017-11-04T04:40:03.571Z,37.87
2017-11-04T04:42:33.433Z,35.77
2017-11-04T04:45:03.277Z,42.40
2017-11-04T04:47:33.143Z,35.77
2017-11-04T04:50:02.962Z,35.83
2017-11-04T04:52:32.838Z,34.97
2017-11-04T04:55:02.658Z,37.67
2017-11-04T04:57:32.519Z,36.93
2017-11-04T05:00:02.338Z,38.70
2017-11-04T05:02:32.231Z,40.00
2017-11-04T05:05:02.053Z,41.73
2017-11-04T05:07:31.911Z,47.20
2017-11-04T05:10:01.760Z,37.50
2017-11-04T05:12:33.507Z,40.60
2017-11-04T05:15:03.352Z,37.50
2017-11-04T05:17:33.201Z,38.93
2017-11-04T05:20:03.064Z,38.27
2017-11-04T05:22:32.925Z,41.73
2017-11-04T05:25:02.775Z,39.23
2017-11-04T05:27:32.600Z,37.93
2017-11-04T05:30:03.375Z,38.27
2017-11-04T05:32:33.241Z,41.17
2017-11-04T05:35:03.090Z,40.70
2017-11-04T05:37:32.915Z,35.50
2017-11-04T05:40:02.784Z,40.63
2017-11-04T05:42:32.841Z,43.80
2017-11-04T05:45:04.333Z,37.60
2017-11-04T05:47:34.146Z,35.10
2017-11-04T05:50:04.006Z,39.90
2017-11-04T05:52:33.856Z,41.57
2017-11-04T05:55:03.692Z,42.80
2017-11-04T05:57:33.541Z,41.50
2017-11-04T06:00:03.366Z,41.33
2017-11-04T06:02:33.234Z,37.73
2017-11-04T06:05:03.057Z,36.93
2017-11-04T06:07:32.906Z,45.40
2017-11-04T06:10:02.733Z,36.30
2017-11-04T06:12:32.575Z,38.27
2017-11-04T06:15:02.432Z,37.53
2017-11-04T06:17:32.305Z,34.60
2017-11-04T06:20:02.135Z,36.33
2017-11-04T06:22:31.978Z,41.40
2017-11-04T06:25:01.837Z,36.87
2017-11-04T06:27:31.678Z,37.37
2017-11-04T06:30:01.539Z,40.80
2017-11-04T06:32:31.351Z,40.90
2017-11-04T06:35:01.208Z,36.77
2017-11-04T06:37:31.039Z,36.10
2017-11-04T06:40:00.905Z,38.80
2017-11-04T06:42:30.726Z,45.10
2017-11-04T06:45:00.573Z,40.63
2017-11-04T06:47:30.435Z,44.60
2017-11-04T06:50:00.299Z,43.17
2017-11-04T06:52:30.158Z,44.40
2017-11-04T06:55:00.024Z,37.90
2017-11-04T06:57:30.103Z,37.87
2017-11-04T06:59:59.938Z,36.37
2017-11-04T07:02:29.834Z,37.70
2017-11-04T07:04:59.665Z,42.57
2017-11-04T07:07:29.518Z,37.10
2017-11-04T07:09:59.344Z,36.70
2017-11-04T07:12:29.204Z,34.70
2017-11-04T07:14:59.048Z,31.50
2017-11-04T07:17:29.794Z,35.33
2017-11-04T07:19:59.626Z,38.20
2017-11-04T07:22:29.551Z,38.60
2017-11-04T07:24:59.415Z,41.00
2017-11-04T07:27:29.251Z,32.90
2017-11-04T07:29:59.116Z,33.03
2017-11-04T07:32:28.939Z,37.90
2017-11-04T07:34:58.799Z,35.23
2017-11-04T07:37:28.643Z,32.57
2017-11-04T07:39:58.523Z,30.93
2017-11-04T07:42:28.349Z,33.60
2017-11-04T07:44:58.211Z,33.00
2017-11-04T07:47:28.076Z,31.50
2017-11-04T07:49:57.947Z,32.20
2017-11-04T07:52:27.797Z,31.07
2017-11-04T07:54:57.629Z,32.63
2017-11-04T07:57:27.497Z,34.17
2017-11-04T07:59:57.330Z,31.20
2017-11-04T08:02:27.250Z,30.57
2017-11-04T08:04:57.084Z,31.70
2017-11-04T08:07:26.974Z,35.70
2017-11-04T08:09:56.832Z,36.43
2017-11-04T08:12:26.688Z,31.87
2017-11-04T08:14:56.515Z,34.33
2017-11-04T08:17:26.380Z,33.67
2017-11-04T08:19:56.223Z,32.33
2017-11-04T08:22:26.090Z,36.23
2017-11-04T08:24:56.853Z,37.50
2017-11-04T08:27:26.787Z,37.17
2017-11-04T08:29:56.708Z,34.87
2017-11-04T08:32:26.592Z,36.47
2017-11-04T08:34:56.416Z,37.50
2017-11-04T08:37:27.331Z,35.53
2017-11-04T08:39:57.195Z,34.87
2017-11-04T08:42:27.046Z,35.93
2017-11-04T08:44:57.002Z,38.83
2017-11-04T08:47:26.891Z,34.47
2017-11-04T08:49:56.775Z,38.30
2017-11-04T08:52:26.618Z,37.80
2017-11-04T08:54:56.458Z,37.60
2017-11-04T08:57:26.360Z,39.17
2017-11-04T08:59:56.238Z,35.03
2017-11-04T09:02:26.054Z,37.40
2017-11-04T09:04:55.908Z,35.20
2017-11-04T09:07:25.822Z,33.83
2017-11-04T09:09:55.659Z,34.40
2017-11-04T09:12:25.500Z,32.73
2017-11-04T09:14:55.358Z,36.87
2017-11-04T09:17:25.309Z,39.90
2017-11-04T09:19:55.162Z,35.27
2017-11-04T09:22:25.615Z,35.40
2017-11-04T09:24:55.478Z,34.60
2017-11-04T09:27:25.311Z,37.10
2017-11-04T09:29:55.162Z,39.17
2017-11-04T09:32:25.023Z,37.37
2017-11-04T09:34:54.871Z,35.00
2017-11-04T09:37:24.725Z,35.60
2017-11-04T09:39:54.554Z,36.97
2017-11-04T09:42:24.442Z,33.73
2017-11-04T09:44:54.277Z,38.07
2017-11-04T09:47:24.543Z,37.83
2017-11-04T09:49:54.354Z,35.13
2017-11-04T09:52:24.190Z,34.97
2017-11-04T09:54:54.042Z,34.70
2017-11-04T09:57:23.878Z,38.17
2017-11-04T09:59:53.750Z,34.73
2017-11-04T10:02:23.574Z,37.00
2017-11-04T10:04:53.491Z,34.43
2017-11-04T10:07:23.302Z,35.93
2017-11-04T10:09:53.202Z,31.30
2017-11-04T10:12:23.052Z,37.00
2017-11-04T10:14:52.911Z,34.50
2017-11-04T10:17:22.738Z,35.20
2017-11-04T10:19:52.575Z,34.80
2017-11-04T10:22:22.394Z,35.13
2017-11-04T10:24:52.325Z,33.70
2017-11-04T10:27:22.161Z,36.03
2017-11-04T10:29:52.014Z,33.63
2017-11-04T10:32:22.333Z,34.87
2017-11-04T10:34:52.173Z,36.10
2017-11-04T10:37:22.030Z,38.20
2017-11-04T10:39:51.878Z,39.30
2017-11-04T10:42:21.730Z,36.07
2017-11-04T10:44:51.552Z,34.60
2017-11-04T10:47:21.402Z,34.67
2017-11-04T10:49:51.257Z,37.20
2017-11-04T10:52:21.106Z,34.97
2017-11-04T10:54:50.942Z,35.13
2017-11-04T10:57:20.814Z,35.93
2017-11-04T10:59:50.637Z,34.97
2017-11-04T11:02:20.490Z,36.43
2017-11-04T11:04:50.327Z,32.03
2017-11-04T11:07:20.175Z,37.50
2017-11-04T11:09:50.052Z,35.13
2017-11-04T11:12:20.078Z,33.37
2017-11-04T11:14:49.902Z,36.57
2017-11-04T11:17:19.765Z,35.73
2017-11-04T11:19:49.626Z,33.37
2017-11-04T11:22:19.478Z,30.83
2017-11-04T11:24:49.339Z,33.33
2017-11-04T11:27:19.219Z,32.80
2017-11-04T11:29:49.135Z,34.50
2017-11-04T11:32:18.949Z,33.53
2017-11-04T11:34:48.802Z,32.67
2017-11-04T11:37:18.630Z,34.63
2017-11-04T11:39:48.481Z,33.30
2017-11-04T11:42:18.302Z,32.67
2017-11-04T11:44:48.199Z,36.57
2017-11-04T11:47:18.040Z,34.43
2017-11-04T11:49:47.917Z,33.70
2017-11-04T11:52:17.986Z,31.00
2017-11-04T11:54:48.329Z,30.33
2017-11-04T11:57:18.186Z,31.77
2017-11-04T11:59:48.043Z,32.23
2017-11-04T12:02:18.826Z,31.80
2017-11-04T12:04:48.951Z,32.17
2017-11-04T12:07:18.779Z,32.33
2017-11-04T12:09:48.598Z,32.70
2017-11-04T12:12:18.483Z,30.93
2017-11-04T12:14:48.319Z,33.63
2017-11-04T12:17:18.182Z,35.53
2017-11-04T12:19:48.027Z,32.77
2017-11-04T12:22:17.882Z,33.03
2017-11-04T12:24:47.725Z,32.90
2017-11-04T12:27:17.590Z,34.20
2017-11-04T12:29:47.492Z,34.53
2017-11-04T12:32:17.370Z,36.73
2017-11-04T12:34:47.215Z,40.53
2017-11-04T12:37:17.090Z,36.13
2017-11-04T12:39:46.916Z,37.63
2017-11-04T12:42:16.758Z,40.80
2017-11-04T12:44:46.618Z,38.77
2017-11-04T12:47:16.506Z,38.50
2017-11-04T12:49:46.718Z,38.93
2017-11-04T12:52:16.530Z,36.73
2017-11-04T12:54:46.417Z,41.07
2017-11-04T12:57:16.247Z,34.50
2017-11-04T12:59:46.083Z,35.67
2017-11-04T13:02:15.930Z,33.87
2017-11-04T13:04:45.756Z,34.73
2017-11-04T13:07:15.591Z,35.70
2017-11-04T13:09:45.453Z,36.70
2017-11-04T13:12:15.279Z,39.37
2017-11-04T13:14:45.130Z,37.43
2017-11-04T13:17:14.982Z,39.07
2017-11-04T13:19:44.868Z,36.53
2017-11-04T13:22:15.179Z,37.30
2017-11-04T13:24:45.018Z,37.67
2017-11-04T13:27:14.865Z,37.07
2017-11-04T13:29:44.998Z,38.23
2017-11-04T13:32:14.938Z,38.77
2017-11-04T13:34:44.767Z,41.70
2017-11-04T13:37:14.627Z,44.57
2017-11-04T13:39:44.494Z,38.87
2017-11-04T13:42:14.350Z,38.67
2017-11-04T13:44:44.213Z,41.20
2017-11-04T13:47:14.438Z,40.73
2017-11-04T13:49:44.243Z,36.40
2017-11-04T13:52:14.105Z,37.07
2017-11-04T13:54:43.974Z,35.43
2017-11-04T13:57:14.115Z,38.53
2017-11-04T13:59:43.970Z,34.40
2017-11-04T14:02:13.836Z,37.03
2017-11-04T14:04:44.308Z,36.50
2017-11-04T14:07:14.172Z,35.33
2017-11-04T14:09:44.280Z,36.07
2017-11-04T14:12:14.186Z,36.83
2017-11-04T14:14:44.673Z,35.10
2017-11-04T14:17:14.522Z,35.90
2017-11-04T14:19:44.389Z,34.47
2017-11-04T14:22:14.598Z,35.30
2017-11-04T14:24:44.440Z,37.20
2017-11-04T14:27:14.282Z,35.37
2017-11-04T14:29:44.137Z,38.40
2017-11-04T14:32:13.991Z,35.40
2017-11-04T14:34:44.078Z,34.23
2017-11-04T14:37:13.932Z,36.67
2017-11-04T14:39:43.817Z,33.00
2017-11-04T14:42:13.637Z,31.63
2017-11-04T14:44:44.163Z,36.20
2017-11-04T14:47:14.053Z,33.43
2017-11-04T14:49:43.866Z,34.87
2017-11-04T14:52:13.738Z,33.37
2017-11-04T14:54:46.065Z,31.07
2017-11-04T14:57:15.906Z,33.20
2017-11-04T14:59:46.496Z,33.87
2017-11-04T15:02:16.338Z,35.27
2017-11-04T15:04:46.170Z,30.10
2017-11-04T15:07:16.029Z,32.73
2017-11-04T15:09:46.526Z,33.53
2017-11-04T15:12:16.382Z,31.40
2017-11-04T15:14:46.227Z,30.60
2017-11-04T15:17:16.103Z,31.50
2017-11-04T15:19:45.930Z,53.07
2017-11-04T15:22:15.811Z,125.40
2017-11-04T15:24:46.285Z,76.33
2017-11-04T15:27:16.192Z,33.43
2017-11-04T15:29:46.052Z,35.43
2017-11-04T15:32:15.919Z,33.53
2017-11-04T15:34:45.823Z,35.23
2017-11-04T15:37:15.761Z,39.40
2017-11-04T15:39:46.032Z,34.23
2017-11-04T15:42:16.243Z,34.87
2017-11-04T15:44:46.250Z,37.10
2017-11-04T15:47:17.310Z,54.97
2017-11-04T15:49:47.611Z,50.90
2017-11-04T15:52:17.421Z,52.30
2017-11-04T15:54:48.167Z,41.37
2017-11-04T15:57:18.084Z,41.17
2017-11-04T15:59:47.965Z,36.90
2017-11-04T16:02:18.539Z,34.00
2017-11-04T16:04:48.390Z,38.20
2017-11-04T16:07:18.240Z,35.50
2017-11-04T16:09:48.075Z,35.33
2017-11-04T16:12:18.767Z,34.33
2017-11-04T16:14:48.606Z,34.03
2017-11-04T16:17:18.466Z,32.63
2017-11-04T16:19:48.295Z,32.87
2017-11-04T16:22:18.145Z,32.60
2017-11-04T16:24:47.958Z,34.90
2017-11-04T16:27:17.813Z,55.03
2017-11-04T16:29:47.654Z,52.17
2017-11-04T16:32:17.482Z,52.40
2017-11-04T16:34:47.312Z,55.07
2017-11-04T16:37:17.176Z,51.67
2017-11-04T16:39:47.004Z,43.40
2017-11-04T16:42:16.889Z,50.07
2017-11-04T16:44:46.758Z,29.33
2017-11-04T16:47:16.627Z,37.87
2017-11-04T16:49:46.831Z,32.43
2017-11-04T16:52:16.653Z,35.03
2017-11-04T16:54:46.510Z,34.97
2017-11-04T16:57:16.367Z,55.43
2017-11-04T16:59:46.481Z,54.33
2017-11-04T17:02:16.895Z,59.10
2017-11-04T17:04:47.298Z,53.17
2017-11-04T17:07:17.140Z,53.20
2017-11-04T17:09:46.974Z,47.40
2017-11-04T17:12:16.829Z,35.10
2017-11-04T17:14:46.685Z,36.47
2017-11-04T17:17:16.534Z,37.83
2017-11-04T17:19:46.368Z,48.00
2017-11-04T17:22:16.297Z,39.33
2017-11-04T17:24:46.140Z,54.80
2017-11-04T17:27:15.979Z,49.83
2017-11-04T17:29:45.817Z,43.90
2017-11-04T17:32:15.671Z,40.80
2017-11-04T17:34:45.481Z,38.70
2017-11-04T17:37:15.354Z,33.63
2017-11-04T17:39:45.195Z,52.83
2017-11-04T17:42:15.054Z,33.53
2017-11-04T17:44:44.872Z,43.13
2017-11-04T17:47:14.970Z,43.07
2017-11-04T17:49:44.788Z,46.60
2017-11-04T17:52:14.641Z,51.53
2017-11-04T17:54:44.474Z,38.17
2017-11-04T17:57:14.338Z,47.33
2017-11-04T17:59:44.203Z,53.53
2017-11-04T18:02:14.022Z,43.50
2017-11-04T18:04:44.425Z,27.13
2017-11-04T18:07:14.246Z,45.93
2017-11-04T18:09:44.137Z,36.40
2017-11-04T18:12:13.988Z,49.53
2017-11-04T18:14:44.691Z,37.07
2017-11-04T18:17:14.557Z,45.43
2017-11-04T18:19:44.401Z,45.70
2017-11-04T18:22:14.226Z,40.50
2017-11-04T18:24:44.081Z,37.27
2017-11-04T18:27:13.907Z,34.60
2017-11-04T18:29:43.802Z,39.63
2017-11-04T18:32:13.747Z,38.93
2017-11-04T18:34:43.537Z,34.90
2017-11-04T18:37:13.386Z,38.53
2017-11-04T18:39:43.252Z,43.40
2017-11-04T18:42:14.405Z,43.23
2017-11-04T18:44:45.055Z,42.33
2017-11-04T18:47:15.031Z,53.33
2017-11-04T18:49:44.875Z,49.60
2017-11-04T18:52:14.728Z,44.70
2017-11-04T18:54:44.559Z,34.57
2017-11-04T18:57:14.404Z,45.77
2017-11-04T18:59:44.890Z,49.33
2017-11-04T19:02:14.778Z,48.50
2017-11-04T19:04:44.623Z,33.90
2017-11-04T19:07:14.482Z,34.57
2017-11-04T19:09:44.355Z,42.13
2017-11-04T19:12:14.182Z,44.27
2017-11-04T19:14:44.574Z,37.40
2017-11-04T19:17:14.418Z,34.23
2017-11-04T19:19:44.289Z,37.43
2017-11-04T19:22:14.110Z,30.80
2017-11-04T19:24:43.960Z,28.10
2017-11-04T19:27:13.799Z,28.77
2017-11-04T19:29:43.627Z,30.43
2017-11-04T19:32:13.458Z,29.10
2017-11-04T19:34:43.313Z,33.63
2017-11-04T19:37:13.144Z,40.30
2017-11-04T19:39:42.994Z,28.70
2017-11-04T19:42:12.830Z,31.57
2017-11-04T19:44:42.698Z,35.57
2017-11-04T19:47:12.515Z,30.50
2017-11-04T19:49:42.390Z,34.90
2017-11-04T19:52:12.248Z,36.47
2017-11-04T19:54:42.089Z,42.70
2017-11-04T19:57:11.950Z,35.73
2017-11-04T19:59:41.798Z,43.07
2017-11-04T20:02:11.648Z,39.87
2017-11-04T20:04:41.466Z,33.47
2017-11-04T20:07:11.305Z,33.00
2017-11-04T20:09:41.154Z,27.43
2017-11-04T20:12:10.987Z,38.00
2017-11-04T20:14:40.819Z,38.70
2017-11-04T20:17:10.698Z,45.53
2017-11-04T20:19:40.536Z,40.40
2017-11-04T20:22:10.412Z,40.83
2017-11-04T20:24:40.243Z,31.23
2017-11-04T20:27:10.201Z,36.57
2017-11-04T20:29:40.063Z,34.50
2017-11-04T20:32:09.926Z,34.37
2017-11-04T20:34:39.846Z,36.57
2017-11-04T20:37:09.665Z,39.37
2017-11-04T20:39:39.565Z,36.47
2017-11-04T20:42:09.411Z,40.83
2017-11-04T20:44:39.298Z,35.17
2017-11-04T20:47:09.131Z,39.50
2017-11-04T20:49:39.019Z,43.50
2017-11-04T20:52:08.862Z,22.23
2017-11-04T20:54:38.692Z,31.30
2017-11-04T20:57:08.538Z,31.37
2017-11-04T20:59:38.368Z,35.50
2017-11-04T21:02:08.239Z,36.67
2017-11-04T21:04:38.113Z,43.53
2017-11-04T21:07:07.950Z,33.23
2017-11-04T21:09:37.796Z,43.17
2017-11-04T21:12:07.639Z,39.17
2017-11-04T21:14:37.521Z,48.93
2017-11-04T21:17:07.393Z,39.93
2017-11-04T21:19:37.221Z,23.20
2017-11-04T21:22:07.051Z,24.17
2017-11-04T21:24:36.902Z,28.87
2017-11-04T21:27:06.787Z,28.50
2017-11-04T21:29:36.628Z,25.30
2017-11-04T21:32:06.508Z,24.67
2017-11-04T21:34:36.325Z,27.80
2017-11-04T21:37:06.191Z,24.33
2017-11-04T21:39:36.880Z,25.07
2017-11-04T21:42:06.693Z,26.10
2017-11-04T21:44:36.558Z,25.60
2017-11-04T21:47:06.382Z,29.07
2017-11-04T21:49:36.232Z,31.00
2017-11-04T21:52:06.053Z,30.17
2017-11-04T21:54:35.902Z,27.30
2017-11-04T21:57:05.734Z,26.20
2017-11-04T21:59:35.585Z,30.40
2017-11-04T22:02:05.504Z,27.40
2017-11-04T22:04:35.370Z,29.07
2017-11-04T22:07:05.234Z,25.27
2017-11-04T22:09:35.098Z,27.07
2017-11-04T22:12:05.059Z,25.70
2017-11-04T22:14:34.972Z,28.70
2017-11-04T22:17:04.833Z,26.33
2017-11-04T22:19:34.648Z,27.93
2017-11-04T22:22:04.519Z,37.97
2017-11-04T22:24:34.336Z,26.40
2017-11-04T22:27:04.196Z,34.70
2017-11-04T22:29:34.025Z,31.50
2017-11-04T22:32:03.871Z,29.03
2017-11-04T22:34:33.687Z,28.73
2017-11-04T22:37:04.577Z,30.10
2017-11-04T22:39:34.430Z,27.37
2017-11-04T22:42:04.275Z,28.37
2017-11-04T22:44:34.130Z,23.43
2017-11-04T22:47:03.974Z,25.10
2017-11-04T22:49:33.823Z,26.00
2017-11-04T22:52:03.670Z,27.77
2017-11-04T22:54:33.514Z,23.90
2017-11-04T22:57:03.342Z,30.13
2017-11-04T22:59:33.199Z,26.40
2017-11-04T23:02:03.030Z,25.13
2017-11-04T23:04:32.875Z,26.07
2017-11-04T23:07:02.697Z,25.17
2017-11-04T23:09:32.547Z,31.23
2017-11-04T23:12:02.378Z,26.90
2017-11-04T23:14:32.238Z,29.93
2017-11-04T23:17:02.081Z,28.47
2017-11-04T23:19:31.951Z,25.03
2017-11-04T23:22:01.770Z,21.97
2017-11-04T23:24:31.622Z,21.57
2017-11-04T23:27:01.474Z,22.30
2017-11-04T23:29:31.315Z,29.00
2017-11-04T23:32:01.161Z,23.03
2017-11-04T23:34:31.004Z,22.83
2017-11-04T23:37:00.854Z,21.30
2017-11-04T23:39:30.686Z,25.57
2017-11-04T23:42:00.541Z,24.67
2017-11-04T23:44:30.380Z,25.17
2017-11-04T23:47:00.235Z,22.77
2017-11-04T23:49:30.063Z,24.87
2017-11-04T23:51:59.978Z,23.13
2017-11-04T23:54:29.806Z,26.50
2017-11-04T23:56:59.666Z,28.30
2017-11-04T23:59:29.494Z,27.33
